sensor_id;sensor_type;location;lat;lon;timestamp;temperature;humidity
1155;DHT22;566;48.414;9.118;2022-12-18T00:01:04;-10.80;97.60
1155;DHT22;566;48.414;9.118;2022-12-18T00:03:33;-10.90;97.90
1155;DHT22;566;48.414;9.118;2022-12-18T00:05:59;-10.90;97.50
1155;DHT22;566;48.414;9.118;2022-12-18T00:08:25;-10.90;97.50
1155;DHT22;566;48.414;9.118;2022-12-18T00:10:50;-10.90;97.80
1155;DHT22;566;48.414;9.118;2022-12-18T00:13:16;-11.10;98.00
1155;DHT22;566;48.414;9.118;2022-12-18T00:15:42;-11.10;97.40
1155;DHT22;566;48.414;9.118;2022-12-18T00:18:08;-11.00;97.30
1155;DHT22;566;48.414;9.118;2022-12-18T00:20:37;-11.00;96.90
1155;DHT22;566;48.414;9.118;2022-12-18T00:23:04;-11.00;97.20
1155;DHT22;566;48.414;9.118;2022-12-18T00:25:32;-10.90;95.10
1155;DHT22;566;48.414;9.118;2022-12-18T00:27:57;-10.70;95.50
1155;DHT22;566;48.414;9.118;2022-12-18T00:30:23;-10.80;96.70
1155;DHT22;566;48.414;9.118;2022-12-18T00:32:48;-10.90;96.70
1155;DHT22;566;48.414;9.118;2022-12-18T00:35:14;-10.80;97.90
1155;DHT22;566;48.414;9.118;2022-12-18T00:37:39;-11.00;98.00
1155;DHT22;566;48.414;9.118;2022-12-18T00:40:05;-10.90;98.00
1155;DHT22;566;48.414;9.118;2022-12-18T00:42:31;-10.80;98.00
1155;DHT22;566;48.414;9.118;2022-12-18T00:45:15;-11.10;98.00
1155;DHT22;566;48.414;9.118;2022-12-18T00:47:41;-11.20;98.00
1155;DHT22;566;48.414;9.118;2022-12-18T00:50:08;-11.20;98.00
1155;DHT22;566;48.414;9.118;2022-12-18T00:52:34;-11.20;98.00
1155;DHT22;566;48.414;9.118;2022-12-18T00:54:59;-11.10;98.00
1155;DHT22;566;48.414;9.118;2022-12-18T00:57:25;-11.10;98.00
1155;DHT22;566;48.414;9.118;2022-12-18T00:59:51;-11.30;98.00
1155;DHT22;566;48.414;9.118;2022-12-18T01:02:19;-11.30;98.00
1155;DHT22;566;48.414;9.118;2022-12-18T01:04:48;-11.20;98.00
1155;DHT22;566;48.414;9.118;2022-12-18T01:07:16;-11.30;98.00
1155;DHT22;566;48.414;9.118;2022-12-18T01:09:42;-11.10;97.30
1155;DHT22;566;48.414;9.118;2022-12-18T01:12:07;-10.90;97.10
1155;DHT22;566;48.414;9.118;2022-12-18T01:14:33;-11.10;98.00
1155;DHT22;566;48.414;9.118;2022-12-18T01:16:58;-11.10;98.00
1155;DHT22;566;48.414;9.118;2022-12-18T01:19:24;-11.10;97.60
1155;DHT22;566;48.414;9.118;2022-12-18T01:21:49;-11.00;96.60
1155;DHT22;566;48.414;9.118;2022-12-18T01:24:15;-11.00;96.40
1155;DHT22;566;48.414;9.118;2022-12-18T01:26:40;-11.00;96.70
1155;DHT22;566;48.414;9.118;2022-12-18T01:29:06;-10.90;95.60
1155;DHT22;566;48.414;9.118;2022-12-18T01:31:33;-10.70;95.10
1155;DHT22;566;48.414;9.118;2022-12-18T01:34:04;-10.60;95.60
1155;DHT22;566;48.414;9.118;2022-12-18T01:36:34;-10.70;98.00
1155;DHT22;566;48.414;9.118;2022-12-18T01:39:02;-10.80;97.30
1155;DHT22;566;48.414;9.118;2022-12-18T01:41:30;-10.60;96.40
1155;DHT22;566;48.414;9.118;2022-12-18T01:47:41;-10.50;97.40
1155;DHT22;566;48.414;9.118;2022-12-18T01:52:50;-10.10;95.60
1155;DHT22;566;48.414;9.118;2022-12-18T01:55:19;-10.10;96.70
1155;DHT22;566;48.414;9.118;2022-12-18T01:57:47;-10.10;96.50
1155;DHT22;566;48.414;9.118;2022-12-18T02:00:18;-10.20;97.10
1155;DHT22;566;48.414;9.118;2022-12-18T02:02:46;-10.20;97.00
1155;DHT22;566;48.414;9.118;2022-12-18T02:05:16;-10.10;96.00
1155;DHT22;566;48.414;9.118;2022-12-18T02:08:26;-10.00;96.20
1155;DHT22;566;48.414;9.118;2022-12-18T02:11:07;-9.80;94.70
1155;DHT22;566;48.414;9.118;2022-12-18T02:19:37;-9.40;94.60
1155;DHT22;566;48.414;9.118;2022-12-18T02:22:29;-9.20;93.70
1155;DHT22;566;48.414;9.118;2022-12-18T02:27:46;-9.10;94.30
1155;DHT22;566;48.414;9.118;2022-12-18T02:30:12;-9.00;93.70
1155;DHT22;566;48.414;9.118;2022-12-18T02:32:42;-8.90;94.60
1155;DHT22;566;48.414;9.118;2022-12-18T02:35:19;-8.80;94.20
1155;DHT22;566;48.414;9.118;2022-12-18T02:37:46;-8.80;94.20
1155;DHT22;566;48.414;9.118;2022-12-18T02:40:14;-8.80;95.20
1155;DHT22;566;48.414;9.118;2022-12-18T02:42:41;-8.80;95.60
1155;DHT22;566;48.414;9.118;2022-12-18T02:45:07;-8.90;96.60
1155;DHT22;566;48.414;9.118;2022-12-18T02:47:37;-8.90;95.70
1155;DHT22;566;48.414;9.118;2022-12-18T02:50:26;-8.90;96.00
1155;DHT22;566;48.414;9.118;2022-12-18T02:58:30;-9.50;98.00
1155;DHT22;566;48.414;9.118;2022-12-18T03:03:55;-9.60;98.00
1155;DHT22;566;48.414;9.118;2022-12-18T03:06:27;-9.50;97.10
1155;DHT22;566;48.414;9.118;2022-12-18T03:08:59;-9.40;98.00
1155;DHT22;566;48.414;9.118;2022-12-18T03:11:29;-9.40;97.70
1155;DHT22;566;48.414;9.118;2022-12-18T03:14:16;-9.50;98.00
1155;DHT22;566;48.414;9.118;2022-12-18T03:16:43;-9.50;97.40
1155;DHT22;566;48.414;9.118;2022-12-18T03:19:15;-9.60;98.00
1155;DHT22;566;48.414;9.118;2022-12-18T03:22:09;-9.80;98.00
1155;DHT22;566;48.414;9.118;2022-12-18T03:24:35;-9.80;98.00
1155;DHT22;566;48.414;9.118;2022-12-18T03:27:07;-9.70;98.00
1155;DHT22;566;48.414;9.118;2022-12-18T03:29:43;-9.80;98.00
1155;DHT22;566;48.414;9.118;2022-12-18T03:32:19;-9.80;98.00
1155;DHT22;566;48.414;9.118;2022-12-18T03:34:48;-10.00;98.00
1155;DHT22;566;48.414;9.118;2022-12-18T03:37:15;-10.10;98.00
1155;DHT22;566;48.414;9.118;2022-12-18T03:39:43;-10.30;98.00
1155;DHT22;566;48.414;9.118;2022-12-18T03:45:13;-10.30;98.00
1155;DHT22;566;48.414;9.118;2022-12-18T03:48:21;-10.20;98.00
1155;DHT22;566;48.414;9.118;2022-12-18T03:56:05;-10.30;98.00
1155;DHT22;566;48.414;9.118;2022-12-18T03:58:32;-10.30;98.00
1155;DHT22;566;48.414;9.118;2022-12-18T04:01:02;-10.20;97.60
1155;DHT22;566;48.414;9.118;2022-12-18T04:03:30;-10.20;97.90
1155;DHT22;566;48.414;9.118;2022-12-18T04:06:00;-10.20;97.30
1155;DHT22;566;48.414;9.118;2022-12-18T04:08:27;-10.20;96.70
1155;DHT22;566;48.414;9.118;2022-12-18T04:10:54;-10.20;96.70
1155;DHT22;566;48.414;9.118;2022-12-18T04:13:38;-10.20;95.70
1155;DHT22;566;48.414;9.118;2022-12-18T04:16:04;-10.10;95.70
1155;DHT22;566;48.414;9.118;2022-12-18T04:18:30;-10.30;98.00
1155;DHT22;566;48.414;9.118;2022-12-18T04:20:56;-10.50;97.90
1155;DHT22;566;48.414;9.118;2022-12-18T04:23:22;-10.40;97.50
1155;DHT22;566;48.414;9.118;2022-12-18T04:25:48;-10.20;97.40
1155;DHT22;566;48.414;9.118;2022-12-18T04:28:13;-10.20;96.90
1155;DHT22;566;48.414;9.118;2022-12-18T04:30:39;-10.20;98.00
1155;DHT22;566;48.414;9.118;2022-12-18T04:33:09;-10.40;97.90
1155;DHT22;566;48.414;9.118;2022-12-18T04:35:35;-10.30;97.60
1155;DHT22;566;48.414;9.118;2022-12-18T04:38:00;-10.30;98.00
1155;DHT22;566;48.414;9.118;2022-12-18T04:40:26;-10.50;98.00
1155;DHT22;566;48.414;9.118;2022-12-18T04:42:52;-10.60;98.00
1155;DHT22;566;48.414;9.118;2022-12-18T04:45:17;-10.50;98.00
1155;DHT22;566;48.414;9.118;2022-12-18T04:47:43;-10.50;98.00
1155;DHT22;566;48.414;9.118;2022-12-18T04:50:09;-10.40;97.70
1155;DHT22;566;48.414;9.118;2022-12-18T04:52:34;-10.30;97.40
1155;DHT22;566;48.414;9.118;2022-12-18T04:55:00;-10.20;96.50
1155;DHT22;566;48.414;9.118;2022-12-18T04:57:25;-10.20;97.50
1155;DHT22;566;48.414;9.118;2022-12-18T04:59:51;-10.40;98.00
1155;DHT22;566;48.414;9.118;2022-12-18T05:02:20;-10.60;98.00
1155;DHT22;566;48.414;9.118;2022-12-18T05:04:45;-10.80;98.00
1155;DHT22;566;48.414;9.118;2022-12-18T05:07:11;-10.80;98.00
1155;DHT22;566;48.414;9.118;2022-12-18T05:09:36;-10.70;97.50
1155;DHT22;566;48.414;9.118;2022-12-18T05:12:02;-10.60;97.10
1155;DHT22;566;48.414;9.118;2022-12-18T05:14:28;-10.60;96.40
1155;DHT22;566;48.414;9.118;2022-12-18T05:16:54;-10.50;96.80
1155;DHT22;566;48.414;9.118;2022-12-18T05:19:20;-10.50;95.50
1155;DHT22;566;48.414;9.118;2022-12-18T05:21:45;-10.50;94.80
1155;DHT22;566;48.414;9.118;2022-12-18T05:24:11;-10.20;91.40
1155;DHT22;566;48.414;9.118;2022-12-18T05:26:37;-9.70;87.80
1155;DHT22;566;48.414;9.118;2022-12-18T05:29:02;-9.30;89.50
1155;DHT22;566;48.414;9.118;2022-12-18T05:31:28;-9.40;92.80
1155;DHT22;566;48.414;9.118;2022-12-18T05:33:53;-9.60;95.40
1155;DHT22;566;48.414;9.118;2022-12-18T05:36:19;-9.70;95.30
1155;DHT22;566;48.414;9.118;2022-12-18T05:38:45;-9.90;96.70
1155;DHT22;566;48.414;9.118;2022-12-18T05:41:10;-10.00;96.20
1155;DHT22;566;48.414;9.118;2022-12-18T05:43:38;-10.00;97.00
1155;DHT22;566;48.414;9.118;2022-12-18T05:46:05;-10.20;96.80
1155;DHT22;566;48.414;9.118;2022-12-18T05:48:31;-10.20;97.00
1155;DHT22;566;48.414;9.118;2022-12-18T05:51:10;-10.30;97.40
1155;DHT22;566;48.414;9.118;2022-12-18T05:53:36;-10.30;96.20
1155;DHT22;566;48.414;9.118;2022-12-18T05:56:04;-10.30;96.30
1155;DHT22;566;48.414;9.118;2022-12-18T05:58:30;-10.10;95.90
1155;DHT22;566;48.414;9.118;2022-12-18T06:00:57;-10.20;97.20
1155;DHT22;566;48.414;9.118;2022-12-18T06:03:22;-10.20;96.40
1155;DHT22;566;48.414;9.118;2022-12-18T06:05:48;-10.20;96.20
1155;DHT22;566;48.414;9.118;2022-12-18T06:08:14;-10.20;96.40
1155;DHT22;566;48.414;9.118;2022-12-18T06:10:40;-10.10;95.80
1155;DHT22;566;48.414;9.118;2022-12-18T06:13:06;-10.20;97.50
1155;DHT22;566;48.414;9.118;2022-12-18T06:15:32;-10.30;96.60
1155;DHT22;566;48.414;9.118;2022-12-18T06:17:58;-10.20;95.40
1155;DHT22;566;48.414;9.118;2022-12-18T06:20:23;-10.20;95.50
1155;DHT22;566;48.414;9.118;2022-12-18T06:22:52;-10.20;96.40
1155;DHT22;566;48.414;9.118;2022-12-18T06:25:17;-10.30;97.00
1155;DHT22;566;48.414;9.118;2022-12-18T06:27:47;-10.30;97.40
1155;DHT22;566;48.414;9.118;2022-12-18T06:30:16;-10.40;97.40
1155;DHT22;566;48.414;9.118;2022-12-18T06:32:41;-10.50;98.00
1155;DHT22;566;48.414;9.118;2022-12-18T06:35:07;-10.70;98.00
1155;DHT22;566;48.414;9.118;2022-12-18T06:37:33;-10.90;98.00
1155;DHT22;566;48.414;9.118;2022-12-18T06:40:01;-10.90;97.80
1155;DHT22;566;48.414;9.118;2022-12-18T06:42:28;-10.90;98.00
1155;DHT22;566;48.414;9.118;2022-12-18T06:44:53;-10.80;97.30
1155;DHT22;566;48.414;9.118;2022-12-18T06:47:19;-10.60;97.20
1155;DHT22;566;48.414;9.118;2022-12-18T06:49:44;-10.70;98.00
1155;DHT22;566;48.414;9.118;2022-12-18T06:52:10;-10.70;98.00
1155;DHT22;566;48.414;9.118;2022-12-18T06:54:35;-10.70;97.80
1155;DHT22;566;48.414;9.118;2022-12-18T06:57:01;-10.70;97.90
1155;DHT22;566;48.414;9.118;2022-12-18T06:59:26;-10.60;97.20
1155;DHT22;566;48.414;9.118;2022-12-18T07:01:52;-10.50;97.90
1155;DHT22;566;48.414;9.118;2022-12-18T07:04:20;-10.50;97.30
1155;DHT22;566;48.414;9.118;2022-12-18T07:06:46;-10.40;98.00
1155;DHT22;566;48.414;9.118;2022-12-18T07:09:12;-10.60;98.00
1155;DHT22;566;48.414;9.118;2022-12-18T07:11:37;-10.50;98.00
1155;DHT22;566;48.414;9.118;2022-12-18T07:14:03;-10.50;98.00
1155;DHT22;566;48.414;9.118;2022-12-18T07:16:28;-10.50;98.00
1155;DHT22;566;48.414;9.118;2022-12-18T07:18:55;-10.40;98.00
1155;DHT22;566;48.414;9.118;2022-12-18T07:21:22;-10.40;97.80
1155;DHT22;566;48.414;9.118;2022-12-18T07:23:48;-10.30;97.50
1155;DHT22;566;48.414;9.118;2022-12-18T07:26:15;-10.30;96.60
1155;DHT22;566;48.414;9.118;2022-12-18T07:28:44;-10.10;96.00
1155;DHT22;566;48.414;9.118;2022-12-18T07:31:12;-10.10;98.00
1155;DHT22;566;48.414;9.118;2022-12-18T07:33:38;-10.10;98.00
1155;DHT22;566;48.414;9.118;2022-12-18T07:36:06;-10.10;98.00
1155;DHT22;566;48.414;9.118;2022-12-18T07:38:32;-10.10;98.00
1155;DHT22;566;48.414;9.118;2022-12-18T07:41:09;-10.10;98.00
1155;DHT22;566;48.414;9.118;2022-12-18T07:43:36;-10.00;98.00
1155;DHT22;566;48.414;9.118;2022-12-18T07:46:06;-10.00;98.00
1155;DHT22;566;48.414;9.118;2022-12-18T07:48:34;-10.00;98.00
1155;DHT22;566;48.414;9.118;2022-12-18T07:51:00;-10.00;98.00
1155;DHT22;566;48.414;9.118;2022-12-18T07:53:27;-10.00;98.00
1155;DHT22;566;48.414;9.118;2022-12-18T07:56:00;-9.90;97.90
1155;DHT22;566;48.414;9.118;2022-12-18T07:58:26;-9.90;98.00
1155;DHT22;566;48.414;9.118;2022-12-18T08:00:52;-9.80;98.00
1155;DHT22;566;48.414;9.118;2022-12-18T08:03:18;-9.80;97.30
1155;DHT22;566;48.414;9.118;2022-12-18T08:05:44;-9.50;97.20
1155;DHT22;566;48.414;9.118;2022-12-18T08:08:10;-9.40;96.70
1155;DHT22;566;48.414;9.118;2022-12-18T08:10:35;-9.20;97.00
1155;DHT22;566;48.414;9.118;2022-12-18T08:13:01;-9.10;97.20
1155;DHT22;566;48.414;9.118;2022-12-18T08:15:26;-9.00;97.20
1155;DHT22;566;48.414;9.118;2022-12-18T08:17:52;-8.90;97.50
1155;DHT22;566;48.414;9.118;2022-12-18T08:20:17;-8.70;97.00
1155;DHT22;566;48.414;9.118;2022-12-18T08:22:43;-8.60;97.30
1155;DHT22;566;48.414;9.118;2022-12-18T08:25:09;-8.60;98.00
1155;DHT22;566;48.414;9.118;2022-12-18T08:27:35;-8.70;98.00
1155;DHT22;566;48.414;9.118;2022-12-18T08:30:00;-8.70;98.00
1155;DHT22;566;48.414;9.118;2022-12-18T08:32:27;-8.40;95.00
1155;DHT22;566;48.414;9.118;2022-12-18T08:34:53;-7.70;89.00
1155;DHT22;566;48.414;9.118;2022-12-18T08:37:18;-6.60;81.30
1155;DHT22;566;48.414;9.118;2022-12-18T08:39:44;-5.80;81.70
1155;DHT22;566;48.414;9.118;2022-12-18T08:42:10;-5.20;77.50
1155;DHT22;566;48.414;9.118;2022-12-18T08:44:54;-4.10;70.80
1155;DHT22;566;48.414;9.118;2022-12-18T08:47:19;-2.30;68.20
1155;DHT22;566;48.414;9.118;2022-12-18T08:49:45;-0.90;69.40
1155;DHT22;566;48.414;9.118;2022-12-18T08:52:11;-0.70;68.30
1155;DHT22;566;48.414;9.118;2022-12-18T08:54:36;-0.50;80.90
1155;DHT22;566;48.414;9.118;2022-12-18T08:57:02;-0.30;88.60
1155;DHT22;566;48.414;9.118;2022-12-18T08:59:28;-0.40;98.00
1155;DHT22;566;48.414;9.118;2022-12-18T09:01:54;0.70;98.00
1155;DHT22;566;48.414;9.118;2022-12-18T09:04:20;1.30;98.00
1155;DHT22;566;48.414;9.118;2022-12-18T09:06:46;2.70;98.00
1155;DHT22;566;48.414;9.118;2022-12-18T09:09:11;3.00;96.90
1155;DHT22;566;48.414;9.118;2022-12-18T09:11:37;3.30;90.40
1155;DHT22;566;48.414;9.118;2022-12-18T09:14:03;3.90;92.30
1155;DHT22;566;48.414;9.118;2022-12-18T09:16:29;3.90;86.20
1155;DHT22;566;48.414;9.118;2022-12-18T09:18:56;4.50;86.30
1155;DHT22;566;48.414;9.118;2022-12-18T09:21:26;4.50;82.80
1155;DHT22;566;48.414;9.118;2022-12-18T09:23:53;4.20;84.30
1155;DHT22;566;48.414;9.118;2022-12-18T09:26:23;4.30;85.50
1155;DHT22;566;48.414;9.118;2022-12-18T09:28:50;4.60;83.10
1155;DHT22;566;48.414;9.118;2022-12-18T09:31:19;5.10;81.90
1155;DHT22;566;48.414;9.118;2022-12-18T09:33:45;4.00;80.70
1155;DHT22;566;48.414;9.118;2022-12-18T09:36:14;3.70;82.20
1155;DHT22;566;48.414;9.118;2022-12-18T09:38:42;2.80;84.00
1155;DHT22;566;48.414;9.118;2022-12-18T09:44:24;2.80;84.10
1155;DHT22;566;48.414;9.118;2022-12-18T09:47:06;2.50;84.20
1155;DHT22;566;48.414;9.118;2022-12-18T09:49:38;2.50;83.70
1155;DHT22;566;48.414;9.118;2022-12-18T09:52:19;2.50;85.20
1155;DHT22;566;48.414;9.118;2022-12-18T09:55:03;3.40;84.00
1155;DHT22;566;48.414;9.118;2022-12-18T09:57:33;3.50;81.40
1155;DHT22;566;48.414;9.118;2022-12-18T10:00:06;3.00;83.40
1155;DHT22;566;48.414;9.118;2022-12-18T10:02:34;3.00;81.00
1155;DHT22;566;48.414;9.118;2022-12-18T10:05:05;2.80;81.80
1155;DHT22;566;48.414;9.118;2022-12-18T10:07:43;2.90;82.00
1155;DHT22;566;48.414;9.118;2022-12-18T10:10:41;3.00;82.40
1155;DHT22;566;48.414;9.118;2022-12-18T10:13:19;3.20;82.20
1155;DHT22;566;48.414;9.118;2022-12-18T10:16:29;3.40;79.80
1155;DHT22;566;48.414;9.118;2022-12-18T10:22:11;4.50;78.60
1155;DHT22;566;48.414;9.118;2022-12-18T10:25:09;4.30;80.80
1155;DHT22;566;48.414;9.118;2022-12-18T10:27:39;4.30;79.40
1155;DHT22;566;48.414;9.118;2022-12-18T10:30:13;4.10;78.90
1155;DHT22;566;48.414;9.118;2022-12-18T10:32:40;3.90;79.10
1155;DHT22;566;48.414;9.118;2022-12-18T10:35:20;3.90;80.10
1155;DHT22;566;48.414;9.118;2022-12-18T10:38:05;4.10;78.30
1155;DHT22;566;48.414;9.118;2022-12-18T10:40:32;3.90;78.30
1155;DHT22;566;48.414;9.118;2022-12-18T10:43:13;3.90;78.80
1155;DHT22;566;48.414;9.118;2022-12-18T10:45:40;4.20;78.70
1155;DHT22;566;48.414;9.118;2022-12-18T10:48:18;3.90;77.70
1155;DHT22;566;48.414;9.118;2022-12-18T10:50:47;3.50;79.70
1155;DHT22;566;48.414;9.118;2022-12-18T10:53:19;3.50;79.00
1155;DHT22;566;48.414;9.118;2022-12-18T10:55:46;3.90;81.30
1155;DHT22;566;48.414;9.118;2022-12-18T10:58:28;4.30;77.40
1155;DHT22;566;48.414;9.118;2022-12-18T11:01:14;3.90;77.00
1155;DHT22;566;48.414;9.118;2022-12-18T11:03:59;3.90;77.80
1155;DHT22;566;48.414;9.118;2022-12-18T11:06:25;3.60;78.30
1155;DHT22;566;48.414;9.118;2022-12-18T11:09:02;4.30;79.00
1155;DHT22;566;48.414;9.118;2022-12-18T11:11:28;4.80;77.70
1155;DHT22;566;48.414;9.118;2022-12-18T11:14:05;5.20;77.20
1155;DHT22;566;48.414;9.118;2022-12-18T11:16:42;5.20;75.90
1155;DHT22;566;48.414;9.118;2022-12-18T11:21:56;5.70;73.20
1155;DHT22;566;48.414;9.118;2022-12-18T11:24:31;5.10;75.20
1155;DHT22;566;48.414;9.118;2022-12-18T11:26:59;4.80;75.10
1155;DHT22;566;48.414;9.118;2022-12-18T11:29:37;4.60;75.40
1155;DHT22;566;48.414;9.118;2022-12-18T11:35:25;4.30;76.40
1155;DHT22;566;48.414;9.118;2022-12-18T11:37:57;4.00;77.60
1155;DHT22;566;48.414;9.118;2022-12-18T11:40:34;3.80;77.80
1155;DHT22;566;48.414;9.118;2022-12-18T11:43:15;3.80;77.80
1155;DHT22;566;48.414;9.118;2022-12-18T11:45:48;3.30;78.60
1155;DHT22;566;48.414;9.118;2022-12-18T11:48:27;2.90;80.50
1155;DHT22;566;48.414;9.118;2022-12-18T11:51:00;2.90;81.40
1155;DHT22;566;48.414;9.118;2022-12-18T11:53:27;3.10;81.10
1155;DHT22;566;48.414;9.118;2022-12-18T12:18:32;2.40;82.80
1155;DHT22;566;48.414;9.118;2022-12-18T12:23:52;1.40;86.60
1155;DHT22;566;48.414;9.118;2022-12-18T12:39:48;0.80;89.20
1155;DHT22;566;48.414;9.118;2022-12-18T12:42:38;0.70;89.50
1155;DHT22;566;48.414;9.118;2022-12-18T12:45:34;0.60;88.80
1155;DHT22;566;48.414;9.118;2022-12-18T12:48:02;0.40;90.10
1155;DHT22;566;48.414;9.118;2022-12-18T12:50:33;0.20;90.80
1155;DHT22;566;48.414;9.118;2022-12-18T12:53:01;0.20;90.70
1155;DHT22;566;48.414;9.118;2022-12-18T12:55:32;0.10;91.50
1155;DHT22;566;48.414;9.118;2022-12-18T13:00:46;0.10;92.10
1155;DHT22;566;48.414;9.118;2022-12-18T13:03:41;0.00;91.20
1155;DHT22;566;48.414;9.118;2022-12-18T13:06:41;-0.10;91.50
1155;DHT22;566;48.414;9.118;2022-12-18T13:09:08;0.00;91.70
1155;DHT22;566;48.414;9.118;2022-12-18T13:11:42;-0.20;90.70
1155;DHT22;566;48.414;9.118;2022-12-18T13:14:34;-0.20;90.30
1155;DHT22;566;48.414;9.118;2022-12-18T13:17:27;-0.10;90.80
1155;DHT22;566;48.414;9.118;2022-12-18T13:20:07;-0.30;90.70
1155;DHT22;566;48.414;9.118;2022-12-18T13:22:48;-0.50;91.20
1155;DHT22;566;48.414;9.118;2022-12-18T13:25:32;-0.90;92.30
1155;DHT22;566;48.414;9.118;2022-12-18T13:28:13;-1.00;93.30
1155;DHT22;566;48.414;9.118;2022-12-18T13:35:41;-1.20;93.00
1155;DHT22;566;48.414;9.118;2022-12-18T13:40:55;-1.60;94.20
1155;DHT22;566;48.414;9.118;2022-12-18T13:43:27;-1.70;94.40
1155;DHT22;566;48.414;9.118;2022-12-18T13:48:27;-2.00;95.10
1155;DHT22;566;48.414;9.118;2022-12-18T13:51:01;-1.90;95.40
1155;DHT22;566;48.414;9.118;2022-12-18T13:53:34;-1.70;94.70
1155;DHT22;566;48.414;9.118;2022-12-18T13:56:06;-1.70;94.60
1155;DHT22;566;48.414;9.118;2022-12-18T13:58:33;-1.70;94.60
1155;DHT22;566;48.414;9.118;2022-12-18T14:00:59;-1.70;94.60
1155;DHT22;566;48.414;9.118;2022-12-18T14:03:28;-1.90;94.60
1155;DHT22;566;48.414;9.118;2022-12-18T14:05:56;-1.90;94.90
1155;DHT22;566;48.414;9.118;2022-12-18T14:08:24;-1.90;95.30
1155;DHT22;566;48.414;9.118;2022-12-18T14:10:52;-2.10;95.40
1155;DHT22;566;48.414;9.118;2022-12-18T14:13:31;-2.10;96.20
1155;DHT22;566;48.414;9.118;2022-12-18T14:15:57;-2.20;95.80
1155;DHT22;566;48.414;9.118;2022-12-18T14:21:28;-2.20;96.40
1155;DHT22;566;48.414;9.118;2022-12-18T14:24:23;-2.30;96.70
1155;DHT22;566;48.414;9.118;2022-12-18T14:26:53;-2.40;96.80
1155;DHT22;566;48.414;9.118;2022-12-18T14:31:50;-2.60;97.40
1155;DHT22;566;48.414;9.118;2022-12-18T14:34:28;-2.70;97.70
1155;DHT22;566;48.414;9.118;2022-12-18T14:36:54;-2.80;98.00
1155;DHT22;566;48.414;9.118;2022-12-18T14:39:21;-2.90;98.00
1155;DHT22;566;48.414;9.118;2022-12-18T14:41:49;-2.90;98.00
1155;DHT22;566;48.414;9.118;2022-12-18T14:44:15;-2.90;98.00
1155;DHT22;566;48.414;9.118;2022-12-18T14:46:43;-2.90;98.00
1155;DHT22;566;48.414;9.118;2022-12-18T14:49:32;-3.00;98.00
1155;DHT22;566;48.414;9.118;2022-12-18T14:52:05;-3.10;98.00
1155;DHT22;566;48.414;9.118;2022-12-18T14:54:32;-3.20;98.00
1155;DHT22;566;48.414;9.118;2022-12-18T14:57:03;-3.30;98.00
1155;DHT22;566;48.414;9.118;2022-12-18T14:59:30;-3.40;98.00
1155;DHT22;566;48.414;9.118;2022-12-18T15:02:28;-3.50;98.00
1155;DHT22;566;48.414;9.118;2022-12-18T15:05:18;-3.70;98.00
1155;DHT22;566;48.414;9.118;2022-12-18T15:07:47;-3.80;98.00
1155;DHT22;566;48.414;9.118;2022-12-18T15:12:50;-4.00;98.00
1155;DHT22;566;48.414;9.118;2022-12-18T15:20:59;-4.20;98.00
1155;DHT22;566;48.414;9.118;2022-12-18T15:26:08;-4.40;98.00
1155;DHT22;566;48.414;9.118;2022-12-18T15:33:41;-4.60;98.00
1155;DHT22;566;48.414;9.118;2022-12-18T15:36:13;-4.60;98.00
1155;DHT22;566;48.414;9.118;2022-12-18T15:38:39;-4.70;98.00
1155;DHT22;566;48.414;9.118;2022-12-18T15:41:04;-4.80;98.00
1155;DHT22;566;48.414;9.118;2022-12-18T15:43:30;-4.80;98.00
1155;DHT22;566;48.414;9.118;2022-12-18T15:46:00;-4.90;98.00
1155;DHT22;566;48.414;9.118;2022-12-18T15:48:26;-4.90;98.00
1155;DHT22;566;48.414;9.118;2022-12-18T15:50:53;-4.90;98.00
1155;DHT22;566;48.414;9.118;2022-12-18T15:53:20;-4.90;98.00
1155;DHT22;566;48.414;9.118;2022-12-18T15:55:46;-4.90;98.00
1155;DHT22;566;48.414;9.118;2022-12-18T15:58:30;-4.90;98.00
1155;DHT22;566;48.414;9.118;2022-12-18T16:00:59;-4.80;98.00
1155;DHT22;566;48.414;9.118;2022-12-18T16:03:25;-4.70;98.00
1155;DHT22;566;48.414;9.118;2022-12-18T16:05:51;-4.70;98.00
1155;DHT22;566;48.414;9.118;2022-12-18T16:08:16;-4.70;98.00
1155;DHT22;566;48.414;9.118;2022-12-18T16:10:42;-4.60;98.00
1155;DHT22;566;48.414;9.118;2022-12-18T16:13:12;-4.60;98.00
1155;DHT22;566;48.414;9.118;2022-12-18T16:15:40;-4.50;98.00
1155;DHT22;566;48.414;9.118;2022-12-18T16:18:09;-4.50;98.00
1155;DHT22;566;48.414;9.118;2022-12-18T16:20:34;-4.40;98.00
1155;DHT22;566;48.414;9.118;2022-12-18T16:23:00;-4.40;98.00
1155;DHT22;566;48.414;9.118;2022-12-18T16:25:30;-4.30;98.00
1155;DHT22;566;48.414;9.118;2022-12-18T16:27:56;-4.30;98.00
1155;DHT22;566;48.414;9.118;2022-12-18T16:30:24;-4.30;98.00
1155;DHT22;566;48.414;9.118;2022-12-18T16:32:52;-4.30;98.00
1155;DHT22;566;48.414;9.118;2022-12-18T16:35:18;-4.30;98.00
1155;DHT22;566;48.414;9.118;2022-12-18T16:37:44;-4.20;98.00
1155;DHT22;566;48.414;9.118;2022-12-18T16:40:12;-4.20;98.00
1155;DHT22;566;48.414;9.118;2022-12-18T16:42:39;-4.10;98.00
1155;DHT22;566;48.414;9.118;2022-12-18T16:45:08;-4.10;98.00
1155;DHT22;566;48.414;9.118;2022-12-18T16:47:34;-4.10;98.00
1155;DHT22;566;48.414;9.118;2022-12-18T16:50:00;-4.00;98.00
1155;DHT22;566;48.414;9.118;2022-12-18T16:52:26;-4.00;98.00
1155;DHT22;566;48.414;9.118;2022-12-18T16:54:51;-3.90;98.00
1155;DHT22;566;48.414;9.118;2022-12-18T16:57:18;-3.90;98.00
1155;DHT22;566;48.414;9.118;2022-12-18T16:59:45;-3.80;98.00
1155;DHT22;566;48.414;9.118;2022-12-18T17:02:19;-3.80;98.00
1155;DHT22;566;48.414;9.118;2022-12-18T17:04:45;-3.80;98.00
1155;DHT22;566;48.414;9.118;2022-12-18T17:07:12;-3.70;98.00
1155;DHT22;566;48.414;9.118;2022-12-18T17:09:38;-3.70;98.00
1155;DHT22;566;48.414;9.118;2022-12-18T17:12:04;-3.70;98.00
1155;DHT22;566;48.414;9.118;2022-12-18T17:14:31;-3.70;98.00
1155;DHT22;566;48.414;9.118;2022-12-18T17:16:57;-3.60;98.00
1155;DHT22;566;48.414;9.118;2022-12-18T17:19:24;-3.70;98.00
1155;DHT22;566;48.414;9.118;2022-12-18T17:21:50;-3.70;98.00
1155;DHT22;566;48.414;9.118;2022-12-18T17:24:16;-3.60;98.00
1155;DHT22;566;48.414;9.118;2022-12-18T17:26:42;-3.60;98.00
1155;DHT22;566;48.414;9.118;2022-12-18T17:29:18;-3.60;98.00
1155;DHT22;566;48.414;9.118;2022-12-18T17:31:45;-3.60;98.00
1155;DHT22;566;48.414;9.118;2022-12-18T17:34:11;-3.50;98.00
1155;DHT22;566;48.414;9.118;2022-12-18T17:36:38;-3.50;98.00
1155;DHT22;566;48.414;9.118;2022-12-18T17:39:05;-3.60;98.00
1155;DHT22;566;48.414;9.118;2022-12-18T17:41:31;-3.50;98.00
1155;DHT22;566;48.414;9.118;2022-12-18T17:43:59;-3.60;98.00
1155;DHT22;566;48.414;9.118;2022-12-18T17:46:26;-3.60;98.00
1155;DHT22;566;48.414;9.118;2022-12-18T17:48:54;-3.60;98.00
1155;DHT22;566;48.414;9.118;2022-12-18T17:51:20;-3.60;98.00
1155;DHT22;566;48.414;9.118;2022-12-18T17:53:48;-3.60;98.00
1155;DHT22;566;48.414;9.118;2022-12-18T17:56:15;-3.60;98.00
1155;DHT22;566;48.414;9.118;2022-12-18T17:58:41;-3.60;98.00
1155;DHT22;566;48.414;9.118;2022-12-18T18:01:07;-3.50;98.00
1155;DHT22;566;48.414;9.118;2022-12-18T18:03:34;-3.60;98.00
1155;DHT22;566;48.414;9.118;2022-12-18T18:06:02;-3.50;98.00
1155;DHT22;566;48.414;9.118;2022-12-18T18:08:29;-3.60;98.00
1155;DHT22;566;48.414;9.118;2022-12-18T18:10:56;-3.60;98.00
1155;DHT22;566;48.414;9.118;2022-12-18T18:13:42;-3.60;98.00
1155;DHT22;566;48.414;9.118;2022-12-18T18:16:28;-3.70;98.00
1155;DHT22;566;48.414;9.118;2022-12-18T18:18:59;-3.70;98.00
1155;DHT22;566;48.414;9.118;2022-12-18T18:21:26;-3.70;98.00
1155;DHT22;566;48.414;9.118;2022-12-18T18:23:52;-3.60;98.00
1155;DHT22;566;48.414;9.118;2022-12-18T18:26:18;-3.60;98.00
1155;DHT22;566;48.414;9.118;2022-12-18T18:28:48;-3.60;98.00